Time;durP1;ratioP1;P1;durP2;ratioP2;P2;SDS_P1;SDS_P2;PMS_P1;PMS_P2;Temp;Humidity;BMP_temperature;BMP_pressure;BME280_temperature;BME280_humidity;BME280_pressure;Samples;Min_cycle;Max_cycle;Signal;HPM_P1;HPM_P2
2022/12/05 00:01:52;;;;;;;;;37.00;31.75;;;;;6.80;63.63;99274.41;6279293;27;97300;-70
2022/12/05 00:04:57;;;;;;;;;41.40;35.40;;;;;6.79;64.24;99277.31;6277979;27;97343;-71
2022/12/05 00:08:00;;;;;;;;;44.40;36.00;;;;;6.66;64.60;99274.44;6277515;27;96672;-71
2022/12/05 00:11:04;;;;;;;;;40.33;34.67;;;;;6.66;64.72;99271.78;6277347;27;97167;-70
2022/12/05 00:14:09;;;;;;;;;46.00;35.80;;;;;6.86;64.41;99275.53;6281034;27;96536;-70
2022/12/05 00:17:12;;;;;;;;;31.40;28.40;;;;;6.81;64.54;99276.09;6286164;27;97176;-70
2022/12/05 00:20:17;;;;;;;;;41.20;34.20;;;;;6.88;63.94;99265.47;6254289;27;96590;-69
2022/12/05 00:23:20;;;;;;;;;37.25;32.25;;;;;6.89;64.01;99261.78;6285481;27;97044;-70
2022/12/05 00:26:24;;;;;;;;;38.75;32.50;;;;;6.73;64.11;99248.59;6301947;27;96541;-70
2022/12/05 00:29:27;;;;;;;;;45.40;38.40;;;;;6.71;64.39;99262.16;6286438;27;96233;-71
2022/12/05 00:32:31;;;;;;;;;40.00;34.80;;;;;6.72;64.46;99258.47;6288267;27;96580;-71
2022/12/05 00:35:35;;;;;;;;;44.40;35.80;;;;;6.74;64.52;99259.13;6287199;27;97711;-70
2022/12/05 00:38:40;;;;;;;;;38.50;33.50;;;;;6.75;64.28;99236.63;6286359;27;97306;-71
2022/12/05 00:41:44;;;;;;;;;31.60;29.80;;;;;6.86;63.87;99233.47;6299087;27;96740;-71
2022/12/05 00:44:49;;;;;;;;;39.00;34.00;;;;;7.04;63.53;99246.44;6287950;27;96529;-69
2022/12/05 00:47:52;;;;;;;;;36.00;32.00;;;;;6.96;63.75;99252.75;6290089;27;96966;-68
2022/12/05 00:51:02;;;;;;;;;39.00;33.00;;;;;6.94;63.63;99248.59;6286359;27;96276;-69
2022/12/05 00:54:08;;;;;;;;;35.20;29.20;;;;;6.94;63.37;99252.13;6289487;27;96351;-70
2022/12/05 00:57:11;;;;;;;;;44.40;37.00;;;;;7.02;63.49;99248.50;6286906;27;96359;-69
2022/12/05 01:00:15;;;;;;;;;44.75;37.75;;;;;6.93;63.32;99244.28;6303364;27;97197;-69
2022/12/05 01:03:19;;;;;;;;;38.00;33.00;;;;;6.76;64.08;99235.63;6287140;27;98411;-70
2022/12/05 01:06:25;;;;;;;;;40.40;33.00;;;;;6.84;63.77;99232.81;6287915;27;96335;-70
2022/12/05 01:09:29;;;;;;;;;38.00;33.00;;;;;6.89;63.60;99227.72;6273497;27;96136;-70
2022/12/05 01:12:32;;;;;;;;;32.60;29.60;;;;;6.81;63.65;99225.19;6288666;27;97107;-70
2022/12/05 01:15:37;;;;;;;;;38.00;33.20;;;;;6.86;63.62;99224.59;6287107;27;96494;-69
2022/12/05 01:18:40;;;;;;;;;37.00;31.33;;;;;6.86;63.71;99230.78;6287628;27;96312;-70
2022/12/05 01:21:46;;;;;;;;;36.00;30.60;;;;;6.82;63.59;99224.16;6288164;27;96290;-70
2022/12/05 01:24:50;;;;;;;;;33.60;30.60;;;;;6.78;63.75;99214.00;6286826;27;98001;-70
2022/12/05 01:27:53;;;;;;;;;37.00;32.00;;;;;6.61;64.28;99218.75;6285135;27;96765;-69
2022/12/05 01:30:57;;;;;;;;;33.25;30.75;;;;;6.51;64.40;99199.47;6287746;27;96283;-70
2022/12/05 01:34:03;;;;;;;;;34.00;30.75;;;;;6.67;64.10;99201.09;6278135;27;96789;-70
2022/12/05 01:37:08;;;;;;;;;32.40;30.00;;;;;6.61;64.44;99201.84;6293041;27;96774;-68
2022/12/05 01:40:11;;;;;;;;;34.40;30.80;;;;;6.67;64.36;99207.28;6295566;27;96336;-70
2022/12/05 01:43:18;;;;;;;;;41.60;34.40;;;;;6.60;64.37;99210.94;6295873;27;96598;-70
2022/12/05 01:46:22;;;;;;;;;35.00;30.00;;;;;6.61;64.68;99207.22;6292984;27;96376;-70
2022/12/05 01:49:30;;;;;;;;;32.75;29.75;;;;;6.57;64.61;99217.47;6293863;27;96640;-69
2022/12/05 01:52:36;;;;;;;;;33.80;32.00;;;;;6.65;64.19;99208.47;6282166;27;96718;-68
2022/12/05 01:55:40;;;;;;;;;40.00;34.40;;;;;6.41;65.19;99209.66;6287462;27;96273;-70
2022/12/05 01:58:45;;;;;;;;;33.40;31.00;;;;;6.27;65.88;99203.31;6286139;27;97726;-70
2022/12/05 02:01:49;;;;;;;;;30.00;26.80;;;;;6.38;65.71;99213.53;6283475;27;96459;-70
2022/12/05 02:05:01;;;;;;;;;38.00;33.00;;;;;6.38;65.57;99204.69;6304348;27;96712;-70
2022/12/05 02:08:08;;;;;;;;;40.00;34.25;;;;;6.51;65.47;99218.22;6286035;27;97387;-70
2022/12/05 02:11:12;;;;;;;;;37.00;33.00;;;;;6.55;65.22;99210.66;6286530;27;96507;-70
2022/12/05 02:14:26;;;;;;;;;41.80;34.20;;;;;6.63;65.12;99211.38;6273734;27;96254;-71
2022/12/05 02:17:39;;;;;;;;;32.00;30.60;;;;;6.51;65.43;99212.88;6272351;27;96388;-70
2022/12/05 02:20:59;;;;;;;;;31.40;29.20;;;;;6.46;65.55;99205.38;6278975;27;96532;-69
2022/12/05 02:24:38;;;;;;;;;36.25;32.25;;;;;6.59;65.50;99198.53;6262754;27;96365;-70
2022/12/05 02:28:09;;;;;;;;;40.50;33.50;;;;;6.72;65.05;99202.19;6299340;27;96334;-70
2022/12/05 02:31:19;;;;;;;;;36.40;32.00;;;;;6.80;64.76;99195.88;6286204;27;96444;-70
2022/12/05 02:34:29;;;;;;;;;35.50;31.75;;;;;6.70;64.85;99188.16;6262980;27;97106;-70
2022/12/05 02:37:42;;;;;;;;;35.80;32.00;;;;;6.73;64.92;99192.31;6276448;27;96330;-69
2022/12/05 02:40:56;;;;;;;;;42.33;34.67;;;;;6.81;64.88;99187.66;6287520;27;96298;-70
2022/12/05 02:44:04;;;;;;;;;38.20;33.00;;;;;6.90;64.38;99188.34;6287288;27;96372;-69
2022/12/05 02:47:11;;;;;;;;;42.60;35.60;;;;;6.90;64.49;99189.19;6281965;27;97688;-71
2022/12/05 02:50:19;;;;;;;;;36.60;33.00;;;;;6.90;64.32;99196.41;6291639;27;96571;-70
2022/12/05 02:53:26;;;;;;;;;36.60;32.00;;;;;6.83;64.47;99201.72;6285445;27;96326;-70
2022/12/05 02:56:32;;;;;;;;;39.00;33.50;;;;;6.69;64.96;99199.91;6285115;27;96466;-70
2022/12/05 02:59:35;;;;;;;;;35.20;32.40;;;;;6.78;64.64;99198.78;6279082;27;96789;-70
2022/12/05 03:02:42;;;;;;;;;33.80;30.40;;;;;6.86;64.49;99204.00;6285110;27;98014;-70
2022/12/05 03:05:51;;;;;;;;;33.67;30.00;;;;;6.84;64.49;99194.50;6265461;27;96509;-70
2022/12/05 03:09:01;;;;;;;;;33.75;31.00;;;;;6.72;64.53;99196.00;6266260;27;96546;-70
2022/12/05 03:12:11;;;;;;;;;32.50;30.00;;;;;6.63;65.27;99213.22;6290814;27;96504;-70
2022/12/05 03:15:21;;;;;;;;;36.20;31.60;;;;;6.72;65.12;99209.41;6289366;27;97699;-66
2022/12/05 03:18:29;;;;;;;;;34.20;30.20;;;;;6.73;65.01;99203.88;6282539;27;96319;-69
2022/12/05 03:21:37;;;;;;;;;39.00;31.00;;;;;6.72;65.34;99193.31;6282655;27;96252;-69
2022/12/05 03:24:41;;;;;;;;;32.00;30.00;;;;;6.78;64.94;99192.56;6285708;27;98284;-69
2022/12/05 03:27:50;;;;;;;;;34.60;31.00;;;;;6.75;65.17;99191.09;6283154;27;96599;-70
2022/12/05 03:30:57;;;;;;;;;34.60;31.60;;;;;6.74;65.07;99176.06;6284602;27;96452;-70
2022/12/05 03:34:07;;;;;;;;;32.40;26.80;;;;;6.84;65.12;99184.59;6277729;27;98010;-69
2022/12/05 03:37:18;;;;;;;;;30.00;27.00;;;;;6.74;65.39;99188.63;6280324;27;97018;-69
2022/12/05 03:40:29;;;;;;;;;34.40;30.40;;;;;6.70;65.12;99176.59;6281446;27;96426;-70
2022/12/05 03:43:40;;;;;;;;;35.50;30.00;;;;;6.90;65.15;99169.59;6276405;27;96755;-70
2022/12/05 03:46:48;;;;;;;;;28.80;28.40;;;;;6.84;65.30;99183.78;6280169;27;96822;-69
2022/12/05 03:49:59;;;;;;;;;34.80;30.40;;;;;6.97;64.84;99198.16;6272701;27;96289;-70
2022/12/05 03:53:07;;;;;;;;;32.60;29.60;;;;;7.01;64.66;99203.94;6278651;27;98977;-69
2022/12/05 03:56:29;;;;;;;;;35.00;32.25;;;;;6.97;64.83;99206.19;6286010;27;96244;-70
2022/12/05 03:59:39;;;;;;;;;30.75;27.75;;;;;6.86;64.75;99205.84;6284838;27;96522;-69
2022/12/05 04:02:48;;;;;;;;;34.00;31.00;;;;;6.87;64.95;99218.22;6284685;27;96266;-70
2022/12/05 04:05:56;;;;;;;;;33.20;30.40;;;;;6.97;65.03;99226.78;6301300;27;96320;-70
2022/12/05 04:09:04;;;;;;;;;28.00;26.00;;;;;6.99;64.77;99224.72;6289071;27;96218;-69
2022/12/05 04:12:14;;;;;;;;;28.75;24.75;;;;;6.92;65.03;99219.31;6290833;27;96907;-69
2022/12/05 04:15:22;;;;;;;;;36.50;31.75;;;;;6.97;64.80;99213.38;6286402;27;96472;-70
2022/12/05 04:18:27;;;;;;;;;34.25;30.00;;;;;6.99;64.72;99223.94;6278439;27;97127;-69
2022/12/05 04:21:40;;;;;;;;;29.20;25.60;;;;;7.02;64.68;99226.22;6287645;27;97495;-69
2022/12/05 04:28:18;;;;;;;;;38.40;32.00;;;;;7.14;64.58;99214.78;6281686;27;96601;-70
2022/12/05 04:31:26;;;;;;;;;30.20;26.20;;;;;7.14;64.45;99205.91;6269038;27;96586;-70
2022/12/05 04:34:33;;;;;;;;;29.00;26.60;;;;;7.21;64.36;99206.81;6272398;27;96249;-69
2022/12/05 04:37:42;;;;;;;;;29.00;26.60;;;;;7.25;64.24;99211.59;6286892;27;96591;-70
2022/12/05 04:40:52;;;;;;;;;23.80;22.20;;;;;7.25;64.24;99214.28;6277671;27;96969;-70
2022/12/05 04:44:01;;;;;;;;;33.00;30.00;;;;;7.29;64.18;99212.03;6291259;27;96431;-69
2022/12/05 04:47:07;;;;;;;;;25.00;23.20;;;;;7.26;64.14;99197.19;6282228;27;98171;-70
2022/12/05 04:50:13;;;;;;;;;26.00;25.00;;;;;7.30;64.12;99202.97;6275242;27;97276;-69
2022/12/05 04:53:19;;;;;;;;;30.00;28.00;;;;;7.36;63.83;99207.56;6285263;27;97200;-68
2022/12/05 04:56:27;;;;;;;;;27.00;23.50;;;;;7.32;63.97;99198.25;6281170;27;98371;-70
2022/12/05 04:59:30;;;;;;;;;33.50;29.50;;;;;7.37;63.84;99193.97;6285510;27;96718;-69
2022/12/05 05:02:42;;;;;;;;;29.00;26.00;;;;;7.43;63.79;99195.03;6301146;27;96637;-70
2022/12/05 05:05:48;;;;;;;;;35.50;28.50;;;;;7.47;63.67;99188.28;6288910;27;96293;-70
2022/12/05 05:08:56;;;;;;;;;27.80;24.20;;;;;7.45;63.69;99179.59;6288654;27;96282;-70
2022/12/05 05:11:59;;;;;;;;;34.00;29.00;;;;;7.45;63.55;99176.91;6272778;27;97632;-71
2022/12/05 05:15:03;;;;;;;;;35.00;30.00;;;;;7.56;63.41;99176.38;6284752;27;96455;-70
2022/12/05 05:18:09;;;;;;;;;33.00;30.00;;;;;7.46;63.42;99157.09;6275560;27;96549;-70
2022/12/05 05:21:19;;;;;;;;;37.00;31.20;;;;;7.53;63.45;99174.06;6285906;27;96367;-70
2022/12/05 05:24:25;;;;;;;;;33.60;29.60;;;;;7.59;63.50;99170.59;6289316;27;96466;-70
2022/12/05 05:27:28;;;;;;;;;38.50;32.50;;;;;7.58;63.27;99173.47;6278133;27;96621;-70
2022/12/05 05:30:31;;;;;;;;;30.60;28.40;;;;;7.55;63.42;99165.81;6290188;27;96488;-70
2022/12/05 05:33:35;;;;;;;;;29.50;25.75;;;;;7.29;64.06;99161.91;6283603;27;96334;-69
2022/12/05 05:36:39;;;;;;;;;34.40;32.40;;;;;7.30;64.17;99165.44;6287317;27;96616;-70
2022/12/05 05:39:44;;;;;;;;;37.00;32.60;;;;;7.37;64.42;99169.00;6288170;27;96436;-70
2022/12/05 05:42:49;;;;;;;;;32.00;29.40;;;;;7.34;64.40;99170.19;6284623;27;97235;-69
2022/12/05 05:45:52;;;;;;;;;44.25;35.25;;;;;7.14;64.99;99179.94;6287577;27;96391;-70
2022/12/05 05:48:56;;;;;;;;;37.00;32.80;;;;;7.13;65.25;99170.25;6286783;27;97956;-70
2022/12/05 05:52:00;;;;;;;;;32.40;29.00;;;;;7.08;65.40;99166.47;6294453;27;97317;-70
2022/12/05 05:55:07;;;;;;;;;32.00;27.00;;;;;6.96;65.89;99158.13;6284557;27;96616;-70
2022/12/05 05:58:10;;;;;;;;;32.20;29.20;;;;;6.92;66.59;99163.03;6284987;27;96826;-70
2022/12/05 06:01:16;;;;;;;;;37.75;32.75;;;;;7.03;65.89;99166.22;6281986;27;96260;-70
2022/12/05 06:04:20;;;;;;;;;37.20;30.40;;;;;7.10;65.86;99180.50;6283398;27;96685;-70
2022/12/05 06:07:23;;;;;;;;;36.60;32.60;;;;;7.09;65.88;99181.53;6282460;27;97042;-70
2022/12/05 06:10:29;;;;;;;;;36.50;32.50;;;;;7.23;65.54;99167.25;6283384;27;97055;-68
2022/12/05 06:13:32;;;;;;;;;31.50;29.00;;;;;7.17;65.21;99176.88;6283753;27;96272;-70
2022/12/05 06:16:36;;;;;;;;;41.00;35.00;;;;;7.27;64.99;99179.22;6284826;27;96602;-70
2022/12/05 06:19:39;;;;;;;;;32.75;27.50;;;;;7.25;64.98;99183.94;6291051;27;96410;-69
2022/12/05 06:22:43;;;;;;;;;35.40;31.80;;;;;7.16;65.22;99175.22;6283938;27;96899;-70
2022/12/05 06:25:49;;;;;;;;;35.80;30.40;;;;;7.20;65.29;99164.94;6284650;27;96522;-70
2022/12/05 06:28:53;;;;;;;;;40.60;35.00;;;;;7.22;65.30;99182.50;6287488;27;96621;-70
2022/12/05 06:31:57;;;;;;;;;43.80;35.40;;;;;7.24;65.20;99183.13;6283310;27;97212;-70
2022/12/05 06:35:06;;;;;;;;;38.40;32.40;;;;;7.36;64.96;99178.91;6289961;27;96316;-70
2022/12/05 06:38:10;;;;;;;;;39.00;32.00;;;;;7.32;64.73;99183.00;6290728;27;96713;-67
2022/12/05 06:41:18;;;;;;;;;42.25;35.00;;;;;7.34;64.71;99190.81;6288161;27;96287;-69
2022/12/05 06:44:23;;;;;;;;;33.60;28.60;;;;;7.34;64.86;99185.47;6298089;27;96619;-69
2022/12/05 06:47:26;;;;;;;;;38.00;32.00;;;;;7.29;64.75;99169.97;6285149;27;96838;-67
2022/12/05 06:50:30;;;;;;;;;38.00;33.00;;;;;7.41;64.62;99178.31;6284948;27;96397;-69
2022/12/05 06:53:33;;;;;;;;;47.00;38.00;;;;;7.48;64.63;99189.09;6266737;27;96962;-69
2022/12/05 06:56:39;;;;;;;;;41.25;33.00;;;;;7.50;64.49;99187.03;6296119;27;96467;-69
2022/12/05 06:59:42;;;;;;;;;36.40;31.60;;;;;7.62;64.27;99188.19;6283963;27;96415;-70
2022/12/05 07:02:45;;;;;;;;;40.00;33.00;;;;;7.58;63.99;99187.72;6289133;27;97783;-70
2022/12/05 07:05:48;;;;;;;;;34.75;31.00;;;;;7.59;63.96;99188.56;6287461;27;96047;-70
2022/12/05 07:08:52;;;;;;;;;34.00;31.20;;;;;7.54;64.10;99185.63;6289808;27;96309;-69
2022/12/05 07:11:57;;;;;;;;;36.40;31.40;;;;;7.61;64.45;99190.03;6286822;27;96861;-69
2022/12/05 07:15:00;;;;;;;;;36.25;31.25;;;;;7.57;64.43;99183.41;6286993;27;96397;-69
2022/12/05 07:18:03;;;;;;;;;35.40;31.40;;;;;7.61;63.67;99181.97;6285780;27;96832;-69
2022/12/05 07:21:10;;;;;;;;;36.00;29.20;;;;;7.57;63.97;99177.22;6285808;27;96374;-69
2022/12/05 07:24:15;;;;;;;;;38.20;34.60;;;;;7.45;64.41;99181.44;6302426;27;96199;-70
2022/12/05 07:27:20;;;;;;;;;37.20;32.20;;;;;7.43;64.65;99178.94;6290712;27;96402;-70
2022/12/05 07:30:29;;;;;;;;;38.67;33.00;;;;;7.49;64.71;99196.09;6286583;27;96268;-69
2022/12/05 07:33:33;;;;;;;;;38.80;32.00;;;;;7.51;64.60;99184.19;6272889;27;97468;-70
2022/12/05 07:36:36;;;;;;;;;41.00;33.20;;;;;7.51;64.74;99178.81;6261960;27;97081;-69
2022/12/05 07:39:39;;;;;;;;;37.80;32.60;;;;;7.63;64.68;99177.22;6278083;27;96321;-70
2022/12/05 07:42:47;;;;;;;;;36.80;33.00;;;;;7.70;64.02;99180.81;6286316;27;96966;-69
2022/12/05 07:45:51;;;;;;;;;35.33;30.00;;;;;7.72;63.90;99181.41;6258466;27;96385;-70
2022/12/05 07:48:55;;;;;;;;;41.00;34.80;;;;;7.69;63.77;99172.94;6285578;27;96508;-69
2022/12/05 07:51:59;;;;;;;;;35.60;32.20;;;;;7.59;64.06;99165.25;6265183;27;96201;-69
2022/12/05 07:55:02;;;;;;;;;41.40;35.00;;;;;7.65;64.26;99171.69;6269539;27;96401;-69
2022/12/05 07:58:07;;;;;;;;;42.40;35.00;;;;;7.70;64.17;99177.28;6290699;27;96524;-69
2022/12/05 08:01:12;;;;;;;;;37.60;32.00;;;;;7.71;64.08;99174.41;6270744;27;97318;-69
2022/12/05 08:04:16;;;;;;;;;39.80;32.40;;;;;7.74;64.11;99171.31;6274585;27;96914;-70
2022/12/05 08:07:20;;;;;;;;;41.50;35.00;;;;;7.75;64.04;99173.00;6274658;27;96667;-71
2022/12/05 08:10:23;;;;;;;;;40.00;33.00;;;;;7.92;63.49;99176.19;6279792;27;96180;-69
2022/12/05 08:13:29;;;;;;;;;41.60;35.40;;;;;7.92;63.00;99167.28;6286511;27;96733;-68
2022/12/05 08:16:33;;;;;;;;;39.75;32.00;;;;;7.93;63.26;99166.28;6273000;27;96336;-70
2022/12/05 08:19:37;;;;;;;;;42.80;33.40;;;;;8.02;62.98;99176.66;6280043;27;96841;-68
2022/12/05 08:22:40;;;;;;;;;45.00;35.00;;;;;8.16;62.61;99173.00;6270935;27;96993;-70
2022/12/05 08:25:43;;;;;;;;;36.60;31.00;;;;;8.18;62.11;99175.50;6296619;27;96480;-70
2022/12/05 08:28:51;;;;;;;;;39.60;32.60;;;;;8.32;61.91;99173.72;6271841;27;96347;-69
2022/12/05 08:31:55;;;;;;;;;37.60;33.00;;;;;8.42;61.79;99183.06;6285247;27;96367;-69
2022/12/05 08:34:58;;;;;;;;;38.00;33.00;;;;;8.36;61.88;99183.88;6274074;27;98551;-70
2022/12/05 08:38:02;;;;;;;;;44.80;35.00;;;;;8.51;61.47;99186.41;6290305;27;96866;-69
2022/12/05 08:41:08;;;;;;;;;39.00;32.00;;;;;8.48;61.01;99187.66;6289102;27;97072;-69
2022/12/05 08:44:15;;;;;;;;;41.40;35.00;;;;;8.38;61.27;99184.50;6290022;27;96712;-70
2022/12/05 08:47:19;;;;;;;;;44.00;34.20;;;;;8.47;61.47;99182.47;6288670;27;96381;-70
2022/12/05 08:50:23;;;;;;;;;38.00;32.00;;;;;8.58;61.33;99190.78;6289564;27;96916;-70
2022/12/05 08:53:26;;;;;;;;;44.60;36.00;;;;;8.72;60.96;99177.38;6287334;27;96368;-70
2022/12/05 08:56:31;;;;;;;;;41.00;34.00;;;;;8.92;60.33;99197.09;6290203;27;97239;-70
2022/12/05 08:59:36;;;;;;;;;34.40;32.00;;;;;8.96;59.61;99188.41;6295357;27;97053;-70
2022/12/05 09:02:40;;;;;;;;;41.67;35.00;;;;;8.97;59.77;99178.47;6285318;27;97179;-70
2022/12/05 09:05:43;;;;;;;;;40.50;35.00;;;;;9.10;59.53;99190.09;6287660;27;96348;-71
2022/12/05 09:08:48;;;;;;;;;41.50;34.50;;;;;9.18;59.13;99190.94;6284986;27;96289;-70
2022/12/05 09:11:51;;;;;;;;;36.80;32.20;;;;;9.27;58.94;99195.91;6287774;27;96692;-70
2022/12/05 09:14:56;;;;;;;;;40.60;33.40;;;;;9.35;58.67;99186.78;6287753;27;96415;-70
2022/12/05 09:18:00;;;;;;;;;43.50;35.00;;;;;9.44;58.10;99190.94;6290868;27;96351;-70
2022/12/05 09:21:08;;;;;;;;;43.00;32.80;;;;;9.45;57.96;99184.53;6293159;27;96328;-71
2022/12/05 09:24:13;;;;;;;;;43.20;36.20;;;;;9.50;58.23;99174.78;6297488;27;97518;-70
2022/12/05 09:27:16;;;;;;;;;40.40;35.20;;;;;9.56;57.91;99179.34;6287747;27;96409;-70
2022/12/05 09:30:21;;;;;;;;;39.00;33.00;;;;;9.65;57.43;99171.88;6284809;27;97244;-69
2022/12/05 09:33:25;;;;;;;;;42.40;33.00;;;;;9.68;57.03;99171.47;6276608;27;97064;-69
2022/12/05 09:36:30;;;;;;;;;43.00;35.50;;;;;9.77;57.42;99177.47;6287115;27;96528;-68
2022/12/05 09:39:34;;;;;;;;;45.40;36.00;;;;;9.82;56.76;99170.41;6284368;27;96444;-69
2022/12/05 09:42:43;;;;;;;;;35.40;31.00;;;;;9.88;56.51;99160.66;6295243;27;96764;-69
2022/12/05 09:45:57;;;;;;;;;38.00;33.00;;;;;9.89;56.63;99157.75;6281925;27;96649;-69
2022/12/05 09:49:04;;;;;;;;;40.50;34.50;;;;;9.82;56.49;99156.94;6288882;27;96434;-69
2022/12/05 09:52:17;;;;;;;;;42.25;36.00;;;;;9.85;56.59;99153.84;6288994;27;96357;-69
2022/12/05 09:55:21;;;;;;;;;39.00;33.75;;;;;9.85;56.08;99153.00;6286911;27;96615;-70
2022/12/05 09:58:38;;;;;;;;;43.25;33.00;;;;;9.78;56.33;99141.41;6288000;27;96116;-69
2022/12/05 10:01:51;;;;;;;;;42.40;35.00;;;;;9.94;56.28;99144.50;6288731;27;96331;-69
2022/12/05 10:05:03;;;;;;;;;34.40;30.00;;;;;9.95;56.00;99145.31;6284172;27;96519;-70
2022/12/05 10:08:18;;;;;;;;;38.60;33.40;;;;;9.99;55.88;99144.69;6281297;27;96159;-70
2022/12/05 10:11:33;;;;;;;;;35.00;30.00;;;;;10.07;56.32;99138.22;6288645;27;96386;-69
2022/12/05 10:14:47;;;;;;;;;40.67;35.00;;;;;10.08;55.54;99147.97;6293139;27;97906;-70
2022/12/05 10:17:59;;;;;;;;;39.60;34.00;;;;;10.17;55.72;99132.41;6290448;27;96617;-70
2022/12/05 10:21:05;;;;;;;;;44.20;35.80;;;;;10.18;55.31;99131.38;6287998;27;96504;-69
2022/12/05 10:24:16;;;;;;;;;44.00;35.00;;;;;10.09;55.22;99127.25;6288221;27;96253;-68
2022/12/05 10:27:24;;;;;;;;;42.00;35.00;;;;;10.16;55.36;99122.72;6288473;27;96935;-69
2022/12/05 10:30:30;;;;;;;;;40.20;33.00;;;;;10.17;54.77;99119.78;6288055;27;97228;-70
2022/12/05 10:33:40;;;;;;;;;39.20;33.60;;;;;10.12;55.23;99129.50;6287326;27;96513;-68
2022/12/05 10:36:55;;;;;;;;;39.00;33.60;;;;;10.13;55.58;99120.38;6279062;27;97082;-70
2022/12/05 10:39:58;;;;;;;;;30.60;26.40;;;;;10.05;55.67;99112.56;6287460;27;96339;-69
2022/12/05 10:43:04;;;;;;;;;42.00;34.75;;;;;9.94;55.74;99111.34;6287804;27;96273;-69
2022/12/05 10:46:10;;;;;;;;;48.60;38.20;;;;;9.94;55.84;99096.00;6273722;27;96549;-70
2022/12/05 10:49:22;;;;;;;;;42.20;35.20;;;;;10.20;56.15;99100.50;6287083;27;96365;-70
2022/12/05 10:52:25;;;;;;;;;35.00;32.00;;;;;10.20;55.36;99097.81;6285445;27;96639;-69
2022/12/05 10:55:34;;;;;;;;;41.00;33.40;;;;;10.53;54.31;99094.94;6287228;27;96402;-69
2022/12/05 10:58:37;;;;;;;;;40.00;33.20;;;;;10.98;53.85;99102.94;6281678;27;96665;-70
2022/12/05 11:01:47;;;;;;;;;35.50;30.25;;;;;11.63;52.32;99099.66;6282367;27;96866;-70
2022/12/05 11:04:53;;;;;;;;;37.00;30.60;;;;;12.55;50.18;99082.38;6286690;27;96632;-68
2022/12/05 11:07:59;;;;;;;;;34.60;30.60;;;;;13.88;47.36;99095.38;6285067;27;96472;-70
2022/12/05 11:11:04;;;;;;;;;31.00;27.60;;;;;15.16;43.81;99076.72;6293897;27;96648;-70
2022/12/05 11:14:23;;;;;;;;;30.00;27.20;;;;;16.81;40.37;99086.56;6290932;27;96295;-71
2022/12/05 11:17:30;;;;;;;;;28.00;25.25;;;;;18.38;37.60;99097.78;6282340;27;97348;-71
2022/12/05 11:20:39;;;;;;;;;27.80;24.80;;;;;19.64;34.97;99075.31;6286992;27;97111;-71
2022/12/05 11:23:42;;;;;;;;;28.00;25.00;;;;;20.28;32.27;99075.41;6286670;27;97515;-69
2022/12/05 11:26:46;;;;;;;;;27.00;25.00;;;;;20.82;31.41;99082.84;6291611;27;96478;-70
2022/12/05 11:29:59;;;;;;;;;28.00;25.00;;;;;21.80;31.58;99075.16;6288650;27;96334;-71
2022/12/05 11:33:21;;;;;;;;;27.00;24.75;;;;;22.78;29.91;99071.00;6286430;27;96537;-69
2022/12/05 11:36:40;;;;;;;;;25.60;23.00;;;;;23.01;28.05;99061.88;6283898;27;96750;-70
2022/12/05 11:39:43;;;;;;;;;22.60;21.00;;;;;23.81;27.17;99066.28;6286568;27;97186;-70
2022/12/05 11:43:20;;;;;;;;;26.80;24.80;;;;;24.31;26.30;99064.50;6287299;27;96083;-71
2022/12/05 11:46:35;;;;;;;;;23.40;22.40;;;;;24.94;26.46;99057.06;6280401;27;96411;-69
2022/12/05 11:50:06;;;;;;;;;27.60;22.60;;;;;25.20;25.43;99051.75;6281418;27;96259;-70
2022/12/05 11:53:34;;;;;;;;;26.80;24.40;;;;;25.39;25.56;99043.28;6285922;27;97028;-71
2022/12/05 11:56:39;;;;;;;;;24.25;22.50;;;;;25.63;25.15;99040.19;6279770;27;96608;-70
2022/12/05 12:00:07;;;;;;;;;28.00;26.00;;;;;25.89;24.14;99041.16;6286109;27;96658;-70
2022/12/05 12:03:48;;;;;;;;;26.00;24.75;;;;;25.64;24.90;99041.84;6288576;27;96558;-69
2022/12/05 12:07:06;;;;;;;;;26.40;24.40;;;;;25.61;24.53;99032.22;6294491;27;96284;-69
2022/12/05 12:10:24;;;;;;;;;29.00;26.00;;;;;25.69;24.25;99028.72;6286507;27;96666;-70
2022/12/05 12:13:45;;;;;;;;;30.75;28.25;;;;;26.13;24.11;99016.69;6283903;27;96523;-69
2022/12/05 12:16:57;;;;;;;;;28.80;25.80;;;;;26.15;23.93;99005.31;6285887;27;97077;-70
2022/12/05 12:20:18;;;;;;;;;28.80;26.80;;;;;25.73;24.51;99009.56;6285412;27;96684;-71
2022/12/05 12:23:34;;;;;;;;;26.25;24.00;;;;;25.40;24.67;99020.88;6289773;27;97127;-69
2022/12/05 12:27:00;;;;;;;;;30.00;27.00;;;;;25.20;24.64;99012.31;6282805;27;96288;-69
2022/12/05 12:30:12;;;;;;;;;26.67;23.00;;;;;24.97;24.98;99006.78;6284943;27;96575;-70
2022/12/05 12:33:29;;;;;;;;;31.50;27.00;;;;;24.59;25.46;99009.03;6287815;27;96528;-70
2022/12/05 12:36:39;;;;;;;;;30.60;27.60;;;;;24.02;26.27;99005.03;6288890;27;96946;-69
2022/12/05 12:39:50;;;;;;;;;29.50;27.00;;;;;23.37;27.45;99006.25;6289392;27;96722;-70
2022/12/05 12:43:11;;;;;;;;;25.75;24.75;;;;;22.78;28.19;99016.00;6283317;27;96898;-70
2022/12/05 12:46:48;;;;;;;;;27.80;25.00;;;;;22.16;28.85;99006.97;6288618;27;96538;-71
2022/12/05 12:50:08;;;;;;;;;31.00;25.50;;;;;21.52;29.89;99000.00;6285679;27;96292;-69
2022/12/05 12:53:44;;;;;;;;;30.50;27.00;;;;;20.97;31.03;98998.56;6288775;27;96929;-71
2022/12/05 12:56:57;;;;;;;;;31.00;27.40;;;;;20.48;31.24;99012.34;6280539;27;96781;-70
2022/12/05 13:00:11;;;;;;;;;37.20;33.00;;;;;20.17;31.96;99008.94;6284938;27;96942;-69
2022/12/05 13:03:21;;;;;;;;;33.20;26.00;;;;;19.99;32.36;99006.00;6288801;27;96715;-70
2022/12/05 13:06:30;;;;;;;;;39.00;33.00;;;;;19.82;32.58;98998.94;6286316;27;97051;-70
2022/12/05 13:09:38;;;;;;;;;36.50;32.00;;;;;19.64;33.28;98999.56;6285093;27;97306;-69
2022/12/05 13:12:43;;;;;;;;;35.20;32.00;;;;;19.34;33.16;98997.69;6290508;27;96603;-71
2022/12/05 13:15:51;;;;;;;;;35.00;32.00;;;;;18.88;33.86;98985.94;6286126;27;96828;-70
2022/12/05 13:18:56;;;;;;;;;34.00;30.25;;;;;18.55;34.89;98984.56;6289141;27;96842;-70
2022/12/05 13:22:00;;;;;;;;;39.40;35.00;;;;;18.38;35.29;98981.22;6290228;27;96506;-70
2022/12/05 13:25:05;;;;;;;;;38.25;32.50;;;;;18.15;35.72;98985.28;6286655;27;96254;-71
2022/12/05 13:28:25;;;;;;;;;35.50;32.00;;;;;17.92;36.19;98991.19;6287055;27;96309;-70
2022/12/05 13:31:42;;;;;;;;;36.00;33.00;;;;;17.75;36.62;98985.09;6270947;27;96474;-69
2022/12/05 13:34:47;;;;;;;;;37.40;32.00;;;;;17.66;36.91;98975.78;6287275;27;96887;-70
2022/12/05 13:44:39;;;;;;;;;42.00;35.00;;;;;17.15;38.01;98977.38;6288161;27;97207;-69
2022/12/05 13:48:00;;;;;;;;;38.50;33.00;;;;;16.86;38.59;98974.97;6286228;27;96672;-70
2022/12/05 13:51:08;;;;;;;;;41.60;35.60;;;;;16.70;39.20;98983.28;6287804;27;96407;-69
2022/12/05 13:54:17;;;;;;;;;35.75;31.75;;;;;16.60;39.55;98991.38;6289635;27;96451;-70
2022/12/05 13:57:49;;;;;;;;;35.33;31.67;;;;;16.46;39.68;98999.91;6289724;27;96385;-70
2022/12/05 14:01:33;;;;;;;;;34.40;31.00;;;;;16.11;40.37;98988.66;6288602;27;96312;-71
2022/12/05 14:04:49;;;;;;;;;39.50;34.00;;;;;15.79;41.19;98991.25;6281867;27;96348;-70
2022/12/05 14:07:54;;;;;;;;;39.75;33.00;;;;;15.49;41.76;98986.19;6286001;27;96281;-71
2022/12/05 14:11:11;;;;;;;;;31.80;28.40;;;;;15.16;42.48;98981.66;6291518;27;96829;-69
2022/12/05 14:14:53;;;;;;;;;42.00;35.00;;;;;14.94;42.92;98977.25;6291243;27;97007;-69
2022/12/05 14:18:01;;;;;;;;;36.00;31.20;;;;;14.68;43.71;98993.13;6278130;27;96573;-70
2022/12/05 14:21:11;;;;;;;;;36.60;32.20;;;;;14.39;44.16;98979.84;6288556;27;96496;-70
2022/12/05 14:24:24;;;;;;;;;40.60;35.00;;;;;14.21;45.00;98981.69;6285329;27;96573;-69
2022/12/05 14:27:46;;;;;;;;;36.40;31.40;;;;;13.99;45.92;98988.00;6280548;27;96814;-69
2022/12/05 14:31:07;;;;;;;;;35.33;32.00;;;;;13.74;46.50;98991.00;6283907;27;97671;-70
2022/12/05 14:34:21;;;;;;;;;38.75;33.75;;;;;13.55;46.99;98994.94;6300798;27;96354;-69
2022/12/05 14:37:28;;;;;;;;;35.80;32.60;;;;;13.41;47.56;98991.66;6285438;27;96450;-69
2022/12/05 14:40:35;;;;;;;;;33.60;30.80;;;;;13.31;47.89;98997.69;6282957;27;96936;-69
2022/12/05 14:43:41;;;;;;;;;37.60;32.60;;;;;13.19;48.61;98996.88;6276250;27;99268;-70